Tuzla Air Base

TR-0005 · Istanbul, Türkiye

METAR history TR-0005 · Tuzla Air Base

Below you see METARs of the last few days. Select a year to browse through older METARs, from the year 2007 onwards.

April 21, 2024

Time Code Weather Temp. Visibility Ceiling Wind METAR/SPECI
11:50
V
16 °C 10 km+ - Var Var 4 kt METAR LTFJ 210850Z VRB04KT CAVOK 16/03 Q1014 NOSIG
11:50
V
16 °C 10 km+ - Var Var 4 kt METAR LTFJ 210850Z VRB04KT CAVOK 16/03 Q1014 NOSIG RMK RWY24R 22004KT 170V270 RWY06R VRB04KT RWY24L 27004KT 240V310
11:20
V
15 °C 10 km+ - 250° 250° 5 kt METAR LTFJ 210820Z 25005KT 190V280 9999 FEW035 15/05 Q1014 NOSIG
10:50
V
14 °C 10 km+ - 240° 240° 6 kt METAR LTFJ 210750Z 24006KT 9999 SCT035 14/05 Q1014 NOSIG RMK RWY24R 24006KT RWY06R 23006KT 190V270 RWY24L 24006KT 210V280
10:20
V
14 °C 10 km+ - 240° 240° 7 kt METAR LTFJ 210720Z 24007KT 9999 SCT035 14/07 Q1014 NOSIG
09:50
V
13 °C 10 km+ - 230° 230° 7 kt METAR LTFJ 210650Z 23007KT 100V260 9999 SCT030 13/08 Q1014 NOSIG RMK RWY24R 24007KT RWY06R 23006KT RWY24L 22005KT 190V270
09:20
V
13 °C 10 km+ - 200° 200° 6 kt METAR LTFJ 210620Z 20006KT 100V260 9999 SCT025 13/08 Q1014 NOSIG
08:50
V
12 °C 10 km+ - 160° 160° 5 kt METAR LTFJ 210550Z 16005KT 100V260 9999 SCT030 12/08 Q1014 NOSIG RMK RWY24R 23005KT 160V290 RWY06R 19005KT RWY24L 22005KT 170V250
08:20
V
12 °C 10 km+ - 240° 240° 6 kt METAR LTFJ 210520Z 24006KT 9999 SCT027 12/08 Q1014 NOSIG
07:50
V
12 °C 10 km+ - Var Var 3 kt METAR LTFJ 210450Z VRB03KT 9999 SCT030 12/07 Q1013 NOSIG RMK RWY24R 24003KT RWY06R VRB02KT RWY24L 21003KT
07:20
V
11 °C 10 km+ - Var Var 1 kt METAR LTFJ 210420Z VRB01KT 9999 SCT027 11/08 Q1013 NOSIG
06:50
V
10 °C 10 km+ - Var Var 1 kt METAR LTFJ 210350Z VRB01KT 9999 SCT030 10/07 Q1013 NOSIG RMK RWY24R 25002KT RWY06R 00000KT RWY24L 17003KT 140V210
06:20
V
9 °C 10 km+ - 120° 120° 2 kt METAR LTFJ 210320Z 12002KT 9999 SCT030 09/07 Q1013 NOSIG
05:50
V
9 °C 10 km+ - Var Var 1 kt METAR LTFJ 210250Z VRB01KT 9999 SCT035 09/07 Q1013 NOSIG RMK RWY24R 00000KT RWY06R 00000KT RWY24L VRB02KT
05:20
V
9 °C 10 km+ - 300° 300° 4 kt METAR LTFJ 210220Z 30004KT 9999 FEW035 09/07 Q1012 NOSIG
04:50
V
9 °C 10 km+ - Var Var 2 kt METAR LTFJ 210150Z VRB02KT 9999 FEW030 09/07 Q1012 NOSIG RMK RWY24R 28005KT RWY06R VRB02KT RWY24L VRB02KT
04:20
V
10 °C 10 km+ - 300° 300° 4 kt METAR LTFJ 210120Z 30004KT 280V340 9999 SCT025 10/06 Q1012 NOSIG
03:50
V
10 °C 10 km+ 10,000 ft 280° 280° 6 kt METAR LTFJ 210050Z 28006KT 9999 FEW020 SCT035 BKN100 10/06 Q1012 NOSIG RMK RWY24R 29006KT RWY06R 28007KT RWY24L 27006KT
03:20
V
10 °C 10 km+ 10,000 ft 290° 290° 5 kt METAR LTFJ 210020Z 29005KT 9999 FEW020 SCT035 BKN100 10/06 Q1011 NOSIG
02:50
V
10 °C 10 km+ 10,000 ft 290° 290° 7 kt METAR LTFJ 202350Z 29007KT 9999 FEW020 SCT035 BKN100 10/06 Q1011 NOSIG RMK RWY24R 30008KT RWY06R 28009KT RWY24L 28009KT
02:20
V
11 °C 10 km+ 10,000 ft 270° 270° 8 kt METAR LTFJ 202320Z 27008KT 9999 FEW020 SCT035 BKN100 11/07 Q1011 NOSIG
01:50
V
11 °C 10 km+ 10,000 ft 270° 270° 7 kt METAR LTFJ 202250Z 27007KT 9999 FEW020 SCT035 BKN100 11/07 Q1011 NOSIG RMK RWY24R 29009KT RWY06R 27008KT RWY24L 27011KT
01:20
V
11 °C 10 km+ 10,000 ft 270° 270° 7 kt METAR LTFJ 202220Z 27007KT 9999 FEW020 SCT035 BKN100 11/07 Q1011 NOSIG
00:50
V
10 °C 10 km+ 10,000 ft 270° 270° 7 kt METAR LTFJ 202150Z 27007KT 9999 SCT035 BKN100 10/07 Q1011 NOSIG RMK RWY24R 29008KT RWY06R 27008KT RWY24L 27009KT
00:20
V
10 °C 10 km+ 9,000 ft 260° 260° 9 kt METAR LTFJ 202120Z 26009KT 9999 FEW017 SCT035 BKN090 10/07 Q1011 NOSIG

April 20, 2024

Time Code Weather Temp. Visibility Ceiling Wind METAR/SPECI
23:50
V
10 °C 10 km+ 9,000 ft 260° 260° 10 kt METAR LTFJ 202050Z 26010KT 9999 FEW015 SCT035 BKN090 10/07 Q1010 NOSIG RMK RWY24R 28008KT RWY06R 26009KT RWY24L 26010KT
23:20
V
10 °C 10 km+ 9,000 ft 270° 270° 9 kt METAR LTFJ 202020Z 27009KT 9999 FEW013 SCT030 BKN090 10/08 Q1010 RESHRA NOSIG
23:07
V
10 °C 10 km+ 9,000 ft 270° 270° 10 kt METAR LTFJ 202007Z 27010KT 9999 FEW013 SCT030 BKN090 10/08 Q1010 RESHRA NOSIG
22:50
M
10 °C 10 km+ 2,600 ft 270° 270° 10 kt METAR LTFJ 201950Z 27010KT 9999 -SHRA SCT013 BKN026 BKN090 10/08 Q1009 NOSIG RMK RWY24R 28009KT RWY06R 26011KT RWY24L 26012KT
22:20
M
10 °C 10 km+ 2,600 ft 270° 270° 10 kt METAR LTFJ 201920Z 27010KT 9999 -SHRA SCT013 BKN026 BKN090 10/08 Q1009 NOSIG
21:50
M
10 °C 10 km+ 2,500 ft 280° 280° 9 kt METAR LTFJ 201850Z 28009KT 250V310 9999 -SHRA SCT011 BKN025 BKN080 10/08 Q1009 NOSIG RMK RWY24R 29011KT RWY06R 27010KT RWY24L 27014KT
21:20
M
10 °C 10 km+ 2,500 ft 280° 280° 11 kt METAR LTFJ 201820Z 28011KT 9999 -SHRA SCT011 BKN025 BKN080 10/09 Q1008 NOSIG
20:50
M
10 °C 10 km+ 2,500 ft 270° 270° 13 kt METAR LTFJ 201750Z 27013KT 9999 -SHRA SCT009 BKN025 BKN080 10/09 Q1008 NOSIG
20:20
M
10 °C 8 km 2,500 ft 270° 270° 16 kt METAR LTFJ 201720Z 27016KT 8000 -SHRA SCT012 BKN025 BKN080 10/09 Q1007 NOSIG
19:50
M
11 °C 10 km+ 3,000 ft 270° 270° 17 kt METAR LTFJ 201650Z 27017KT 9999 -SHRA FEW015CB BKN030 11/10 Q1006 NOSIG RMK RWY24R 29017KT RWY06R 26017KT RWY24L 27019KT
19:20
M
11 °C 6 km 3,000 ft 270° 270° 16 kt METAR LTFJ 201620Z 27016KT 6000 -SHRA FEW015CB BKN030 11/10 Q1005 NOSIG
18:50
M
12 °C 7 km 3,000 ft 290° 290° 18 - 28 kt METAR LTFJ 201550Z 29018G28KT 7000 -SHRA FEW015CB BKN030 12/10 Q1003 TEMPO -TSRA RMK RWY24R 30017G28KT 270V330 RWY06R 29017G29KT RWY24L 28016G26KT
18:20
M
13 °C 10 km+ 3,000 ft 260° 260° 13 kt METAR LTFJ 201520Z 26013KT 9999 -SHRA FEW015CB BKN030 13/11 Q1002 TEMPO 31025G35KT -TSRA
17:50
M
13 °C 10 km+ 3,000 ft 240° 240° 13 - 24 kt METAR LTFJ 201450Z 24013G24KT 9999 -SHRA FEW015CB BKN030 13/11 Q1001 TEMPO 31025G35KT -TSRA RMK RWY24R 22017KT RWY06R 21016KT 180V250 RWY24L 19018KT
17:20
M
13 °C 10 km+ 3,000 ft 240° 240° 15 kt METAR LTFJ 201420Z 24015KT 180V260 9999 -SHRA FEW015CB BKN030 13/10 Q1001 TEMPO 31025G35KT -TSRA
17:15
M
13 °C 10 km+ 3,000 ft 200° 200° 17 kt METAR LTFJ 201415Z 20017KT 170V260 9999 -SHRA FEW015CB BKN030 13/10 Q1001 TEMPO 31025G35KT -TSRA
16:50
M
14 °C 10 km+ 3,000 ft 240° 240° 18 kt METAR LTFJ 201350Z 24018KT 200V260 9999 FEW015CB BKN030 14/08 Q1001 TEMPO 31025G35KT -TSRA RMK RWY24R 22020KT RWY06R 19019KT RWY24L 20019KT
16:20
M
15 °C 10 km+ 3,000 ft 240° 240° 18 kt METAR LTFJ 201320Z 24018KT 9999 FEW015CB BKN030 15/09 Q1001 RESHRA TEMPO 31025G35KT -TSRA
15:50
M
15 °C 10 km+ 3,000 ft 240° 240° 10 kt METAR LTFJ 201250Z 24010KT 9999 -SHRA FEW015CB BKN030 15/09 Q1001 TEMPO 31025G35KT -TSRA RMK RWY24R 24012KT RWY06R 22012KT RWY24L 22012KT
15:20
M
14 °C 10 km+ 3,000 ft 240° 240° 16 kt METAR LTFJ 201220Z 24016KT 9999 FEW015CB BKN030 14/09 Q1001 TEMPO 31025G35KT -TSRA
14:50
M
15 °C 10 km+ 3,000 ft 250° 250° 21 - 35 kt METAR LTFJ 201150Z 25021G35KT 9999 -SHRA FEW015CB BKN030 15/10 Q1001 TEMPO -TSRA RMK RWY24R 26024G36KT RWY06R 25022KT RWY24L 25025G37KT
14:38
M
15 °C 10 km+ 3,000 ft 240° 240° 18 - 32 kt METAR LTFJ 201138Z 24018G32KT 9999 FEW015CB BKN030 15/10 Q1001 TEMPO -TSRA
14:20
M
17 °C 10 km+ 3,000 ft 250° 250° 10 kt METAR LTFJ 201120Z 25010KT 9999 FEW015CB BKN030 17/10 Q1000 RETSRA TEMPO 31025G35KT -TSRA
14:06
M
16 °C 10 km+ 3,000 ft 250° 250° 8 kt METAR LTFJ 201106Z 25008KT 9999 -TSRA FEW015CB BKN030 16/11 Q1000 TEMPO 31025G35KT
13:50
M
17 °C 10 km+ 3,000 ft 260° 260° 13 kt METAR LTFJ 201050Z 26013KT 9999 SCT010 BKN030 BKN080 17/11 Q1001 NOSIG RMK RWY24R 26013KT RWY06R 26012KT 220V280 RWY24L 26012KT 230V300
13:20
V
16 °C 10 km+ - 290° 290° 3 kt METAR LTFJ 201020Z 29003KT 230V300 CAVOK 16/13 Q1000 NOSIG
12:50
V
15 °C 10 km+ 3,500 ft Var Var 2 kt METAR LTFJ 200950Z VRB02KT 9999 SCT010 BKN035 BKN080 15/12 Q1000 BECMG 24012KT RMK RWY24R 27003KT 230V350 RWY06R VRB02KT RWY24L VRB04KT
12:20
V
14 °C 10 km+ 3,500 ft 060° 060° 4 kt METAR LTFJ 200920Z 06004KT 9999 SCT010 BKN035 BKN080 14/13 Q1000 BECMG 24012KT
11:50
V
14 °C 10 km+ 3,500 ft 060° 060° 5 kt METAR LTFJ 200850Z 06005KT 9999 SCT010 BKN035 BKN080 14/12 Q1000 BECMG 24012KT RMK RWY24R 04003KT 350V090 RWY06R 03004KT 010V070 RWY24L 36004KT 310V030
11:20
V
14 °C 10 km+ 3,500 ft 070° 070° 7 kt METAR LTFJ 200820Z 07007KT 300V080 9999 SCT010 BKN035 BKN080 14/13 Q1000 BECMG 24012KT RMK RWY24R 02005KT 360V060 RWY06R 04006KT RWY24L 04004KT 340V080
10:50
V
14 °C 10 km+ 3,500 ft 060° 060° 7 kt METAR LTFJ 200750Z 06007KT 280V080 9999 SCT010 BKN035 BKN080 14/12 Q1000 RESHRA NOSIG RMK RWY24R 04004KT 340V110 RWY06R 03007KT 360V060 RWY24L 02004KT 340V070
10:20
V
13 °C 10 km+ 3,500 ft 050° 050° 12 - 22 kt METAR LTFJ 200720Z 05012G22KT 280V080 9999 -SHRA SCT010 BKN035 BKN080 13/12 Q1000 RESHRA NOSIG
10:00
M
13 °C 7 km 3,500 ft 050° 050° 11 kt METAR LTFJ 200700Z 05011KT 7000 -SHRA SCT010 BKN035 BKN080 13/12 Q1001 RESHRA NOSIG
09:50
I
13 °C 4 km 3,500 ft 050° 050° 11 kt METAR LTFJ 200650Z 05011KT 4000 SHRA SCT010 BKN035 BKN080 13/12 Q1001 RESHRA BECMG 6000 NSW RMK RWY24R 04007KT RWY06R 03009KT RWY24L 03007KT
09:20
M
13 °C 6 km 3,500 ft 060° 060° 6 kt METAR LTFJ 200620Z 06006KT 6000 -SHRA SCT010 BKN035 BKN080 13/12 Q1001 TEMPO 4000 SHRA
08:50
V
13 °C 10 km+ 4,000 ft 060° 060° 8 kt METAR LTFJ 200550Z 06008KT 9999 -SHRA BKN040 BKN080 13/12 Q1000 NOSIG RMK RWY24R 03006KT RWY06R 03007KT RWY24L 01005KT
08:20
V
13 °C 10 km+ 4,000 ft 060° 060° 8 kt METAR LTFJ 200520Z 06008KT 9999 BKN040 BKN080 13/12 Q1000 RESHRA NOSIG
07:50
M
13 °C 10 km+ 2,600 ft 060° 060° 12 kt METAR LTFJ 200450Z 06012KT 010V080 9999 -SHRA FEW011 BKN026 BKN070 13/12 Q1000 NOSIG RMK RWY24R 04008KT RWY06R 04011KT 010V080 RWY24L 03011KT
07:20
M
13 °C 7 km 2,600 ft 050° 050° 11 kt METAR LTFJ 200420Z 05011KT 7000 -SHRA FEW011 BKN026 BKN070 13/12 Q1001 NOSIG
06:50
M
13 °C 7 km 2,600 ft 050° 050° 12 kt METAR LTFJ 200350Z 05012KT 7000 -SHRA FEW011 BKN026 BKN070 13/12 Q1001 NOSIG RMK RWY24R 06006KT RWY06R 05010KT RWY24L 07006KT 040V100
06:20
M
13 °C 7 km 2,600 ft 060° 060° 12 kt METAR LTFJ 200320Z 06012KT 7000 -SHRA FEW011 BKN026 BKN070 13/12 Q1001 NOSIG
05:50
M
13 °C 10 km+ 2,600 ft 050° 050° 14 kt METAR LTFJ 200250Z 05014KT 9999 -SHRA FEW011 BKN026 BKN070 13/12 Q1001 NOSIG RMK RWY24R 05010KT RWY06R 04013KT RWY24L 03009KT
05:20
M
12 °C 10 km+ 2,600 ft 050° 050° 16 kt METAR LTFJ 200220Z 05016KT 9999 -SHRA FEW011 BKN026 BKN070 12/11 Q1002 NOSIG
04:50
M
13 °C 10 km+ 3,000 ft 050° 050° 19 kt METAR LTFJ 200150Z 05019KT 9999 -SHRA FEW013 BKN030 BKN090 13/11 Q1002 NOSIG RMK RWY24R 05014KT RWY06R 03017KT RWY24L 03013KT
04:33
M
13 °C 10 km+ 2,600 ft 050° 050° 19 kt METAR LTFJ 200133Z 05019KT 9999 -SHRA FEW013 BKN026 BKN070 13/11 Q1002 NOSIG
04:20
M
13 °C 10 km+ 3,000 ft 050° 050° 19 kt METAR LTFJ 200120Z 05019KT 9999 FEW013 BKN030 BKN090 13/11 Q1003 NOSIG
03:50
M
13 °C 10 km+ 3,000 ft 050° 050° 16 kt METAR LTFJ 200050Z 05016KT 9999 FEW013 BKN030 BKN090 13/11 Q1003 NOSIG
03:20
M
12 °C 10 km+ 3,000 ft 050° 050° 15 kt METAR LTFJ 200020Z 05015KT 9999 FEW013 BKN030 BKN090 12/11 Q1004 NOSIG
02:50
M
12 °C 10 km+ 3,000 ft 050° 050° 13 kt METAR LTFJ 192350Z 05013KT 9999 FEW013 BKN030 BKN090 12/10 Q1005 NOSIG RMK RWY24R 04008KT RWY06R 03013KT RWY24L 01006KT
02:20
M
12 °C 10 km+ 3,000 ft 050° 050° 15 kt METAR LTFJ 192320Z 05015KT 9999 FEW013 BKN030 BKN090 12/10 Q1005 NOSIG
01:50
M
12 °C 10 km+ 3,000 ft 050° 050° 16 kt METAR LTFJ 192250Z 05016KT 9999 FEW013 BKN030 BKN090 12/10 Q1006 NOSIG RMK RWY24R 05011KT RWY06R 03016KT RWY24L 03011KT
01:20
M
12 °C 10 km+ 3,000 ft 060° 060° 13 kt METAR LTFJ 192220Z 06013KT 9999 FEW013 BKN030 BKN090 12/10 Q1007 NOSIG
00:50
M
13 °C 10 km+ 3,000 ft 060° 060° 11 kt METAR LTFJ 192150Z 06011KT 9999 FEW013 BKN030 BKN090 13/10 Q1007 NOSIG RMK RWY24R 02010KT RWY06R 02012KT RWY24L 36009KT
00:20
M
13 °C 10 km+ 3,000 ft 050° 050° 14 kt METAR LTFJ 192120Z 05014KT 9999 FEW013 BKN030 BKN090 13/10 Q1007 NOSIG

April 19, 2024

Time Code Weather Temp. Visibility Ceiling Wind METAR/SPECI
23:50
M
13 °C 10 km+ 3,000 ft 050° 050° 10 kt METAR LTFJ 192050Z 05010KT 9999 FEW013 BKN030 BKN090 13/10 Q1009 NOSIG RMK RWY24R 05006KT 030V090 RWY06R 05011KT RWY24L 05009KT
23:20
M
13 °C 10 km+ 3,000 ft 050° 050° 10 kt METAR LTFJ 192020Z 05010KT 9999 FEW013 BKN030 BKN090 13/10 Q1009 NOSIG
22:50
M
13 °C 10 km+ 3,000 ft 050° 050° 9 kt METAR LTFJ 191950Z 05009KT 9999 FEW013 BKN030 BKN090 13/10 Q1009 NOSIG RMK RWY24R 05006KT RWY06R 04009KT RWY24L 04007KT 010V070
22:20
M
13 °C 10 km+ 3,000 ft 060° 060° 10 kt METAR LTFJ 191920Z 06010KT 9999 SCT013 BKN030 13/10 Q1009 NOSIG
21:50
M
13 °C 10 km+ 3,000 ft 050° 050° 10 kt METAR LTFJ 191850Z 05010KT 9999 SCT013 BKN030 13/10 Q1010 NOSIG RMK RWY24R 04008KT RWY06R 03010KT RWY24L 05009KT
21:20
M
13 °C 10 km+ 3,000 ft 050° 050° 10 kt METAR LTFJ 191820Z 05010KT 9999 SCT013 BKN030 13/10 Q1010 RESHRA NOSIG
20:50
M
13 °C 10 km+ 3,000 ft 050° 050° 9 kt METAR LTFJ 191750Z 05009KT 9999 -SHRA SCT013 BKN030 13/10 Q1010 NOSIG RMK RWY24R 05006KT RWY06R 05009KT RWY24L 06008KT 040V110
20:44
M
13 °C 10 km+ 3,000 ft 050° 050° 10 kt METAR LTFJ 191744Z 05010KT 9999 -SHRA SCT013 BKN030 13/10 Q1010 NOSIG
20:20
M
13 °C 10 km+ 3,000 ft 050° 050° 13 kt METAR LTFJ 191720Z 05013KT 9999 SCT013 BKN030 BKN080 13/10 Q1010 NOSIG
19:50
M
12 °C 10 km+ 3,000 ft 060° 060° 12 kt METAR LTFJ 191650Z 06012KT 9999 FEW013 BKN030 BKN080 12/10 Q1010 NOSIG RMK RWY24R 06009KT RWY06R 04012KT RWY24L 05011KT
19:20
M
12 °C 10 km+ 3,000 ft 060° 060° 12 kt METAR LTFJ 191620Z 06012KT 9999 FEW012 BKN030 BKN080 12/10 Q1010 NOSIG
18:50
M
12 °C 10 km+ 3,000 ft 050° 050° 14 kt METAR LTFJ 191550Z 05014KT 9999 FEW012 BKN030 BKN080 12/10 Q1010 NOSIG RMK RWY24R 05012KT RWY06R 02013KT RWY24L 04014KT
18:20
M
12 °C 10 km+ 3,000 ft 060° 060° 14 kt METAR LTFJ 191520Z 06014KT 9999 FEW012 BKN030 BKN080 12/10 Q1011 RESHRA NOSIG
17:50
M
12 °C 10 km+ 3,000 ft 070° 070° 17 kt METAR LTFJ 191450Z 07017KT 9999 -SHRA FEW012 BKN030 BKN080 12/10 Q1011 NOSIG RMK RWY24R 04013KT RWY06R 02016KT RWY24L 02013KT
17:20
M
13 °C 10 km+ 3,000 ft 070° 070° 12 kt METAR LTFJ 191420Z 07012KT 290V080 9999 FEW013 BKN030 BKN080 13/10 Q1011 NOSIG
16:50
M
13 °C 10 km+ 3,000 ft 070° 070° 15 kt METAR LTFJ 191350Z 07015KT 9999 FEW013 BKN030 BKN080 13/10 Q1011 NOSIG RMK RWY24R 03012KT RWY06R 02014KT RWY24L 03011KT
16:20
M
13 °C 10 km+ 3,000 ft 060° 060° 15 kt METAR LTFJ 191320Z 06015KT 9999 FEW013 BKN030 BKN080 13/10 Q1011 NOSIG
15:50
M
13 °C 10 km+ 3,000 ft 060° 060° 15 kt METAR LTFJ 191250Z 06015KT 9999 FEW013 BKN030 BKN080 13/10 Q1011 NOSIG RMK RWY24R 05013KT RWY06R 04016KT RWY24L 05013KT
15:20
M
13 °C 10 km+ 3,000 ft 060° 060° 16 kt METAR LTFJ 191220Z 06016KT 9999 FEW010 BKN030 BKN080 13/10 Q1011 NOSIG
14:50
M
14 °C 10 km+ 3,000 ft 060° 060° 15 kt METAR LTFJ 191150Z 06015KT 9999 FEW010 BKN030 BKN080 14/11 Q1011 NOSIG RMK RWY24R 05014KT RWY06R 03017KT RWY24L 04014KT
14:20
M
13 °C 10 km+ 3,000 ft 060° 060° 14 kt METAR LTFJ 191120Z 06014KT 9999 FEW010 BKN030 BKN080 13/11 Q1012 NOSIG
13:50
M
12 °C 10 km+ 3,000 ft 070° 070° 13 kt METAR LTFJ 191050Z 07013KT 360V080 9999 FEW010 BKN030 BKN080 12/10 Q1012 NOSIG RMK RWY24R 02011KT RWY06R 01014KT RWY24L 01011KT
13:20
M
12 °C 10 km+ 3,000 ft 060° 060° 13 kt METAR LTFJ 191020Z 06013KT 9999 FEW010 BKN030 BKN080 12/10 Q1012 RESHRA NOSIG
12:50
M
12 °C 10 km+ 3,000 ft 060° 060° 12 kt METAR LTFJ 190950Z 06012KT 310V080 9999 -SHRA SCT007 BKN030 BKN080 12/10 Q1012 NOSIG RMK RWY24R 02010KT RWY06R 36012KT RWY24L 36010KT
12:20
M
12 °C 10 km+ 3,000 ft 070° 070° 12 kt METAR LTFJ 190920Z 07012KT 9999 -SHRA SCT007 BKN030 BKN080 12/11 Q1012 NOSIG
11:50
M
13 °C 10 km+ 3,000 ft 060° 060° 14 kt METAR LTFJ 190850Z 06014KT 9999 -SHRA SCT007 BKN030 BKN080 13/12 Q1012 NOSIG RMK RWY24R 05010KT RWY06R 03013KT RWY24L 04011KT
11:20
M
13 °C 10 km+ 3,000 ft 070° 070° 12 kt METAR LTFJ 190820Z 07012KT 9999 -SHRA SCT007 BKN030 BKN080 13/11 Q1012 NOSIG
10:50
M
13 °C 10 km+ 3,000 ft 060° 060° 11 kt METAR LTFJ 190750Z 06011KT 9999 -SHRA SCT007 BKN030 BKN080 13/12 Q1012 NOSIG RMK RWY24R 04009KT RWY06R 02010KT RWY24L 03010KT
10:20
M
13 °C 10 km+ 3,000 ft 070° 070° 9 kt METAR LTFJ 190720Z 07009KT 9999 -SHRA SCT008 BKN030 BKN080 13/12 Q1012 NOSIG
09:50
M
14 °C 10 km+ 3,000 ft 060° 060° 10 kt METAR LTFJ 190650Z 06010KT 9999 -SHRA SCT008 BKN030 BKN080 14/12 Q1012 NOSIG RMK RWY24R 05007KT RWY06R 04009KT RWY24L 04008KT
09:20
M
14 °C 7 km 3,000 ft 060° 060° 9 kt METAR LTFJ 190620Z 06009KT 7000 -SHRA SCT008 BKN030 BKN080 14/12 Q1012 NOSIG
08:50
M
14 °C 10 km+ 3,000 ft 060° 060° 8 kt METAR LTFJ 190550Z 06008KT 9999 -SHRA SCT008 BKN030 BKN080 14/12 Q1012 NOSIG RMK RWY24R 03006KT RWY06R 01007KT RWY24L 01006KT
Report a change